This is the latest recevied weather packets stored in our database for station/object KG5MMT-15. If no packets are shown the sender has not sent any weather packets the latest 10 day(s).
| Time | Temp. | Humidity | Pressure | Rain* | Wind** | Luminosity | Snow |
|---|---|---|---|---|---|---|---|
| 1777988537 | 11.67° C | 39% | 0 hPa | 0 mm | - | - | - |
| 1777988238 | 11.11° C | 41% | 0 hPa | 0 mm | - | - | - |
| 1777987937 | 10° C | 46% | 0 hPa | 0 mm | - | - | - |
| 1777987637 | 8.89° C | 48% | 0 hPa | 0 mm | - | - | - |
| 1777987337 | 7.78° C | 56% | 0 hPa | 0 mm | - | - | - |
| 1777987037 | 6.67° C | 57% | 0 hPa | 0 mm | - | - | - |
| 1777986737 | 6.67° C | 54% | 0 hPa | 0 mm | - | - | - |
| 1777986437 | 6.11° C | 61% | 0 hPa | 0 mm | - | - | - |
| 1777986137 | 6.11° C | 60% | 0 hPa | 0 mm | - | - | - |
| 1777985837 | 6.67° C | 58% | 0 hPa | 0 mm | - | - | - |
| 1777985537 | 6.11° C | 59% | 0 hPa | 0 mm | - | - | - |
| 1777985237 | 6.11° C | 57% | 0 hPa | 0 mm | - | - | - |
| 1777984937 | 6.11° C | 60% | 0 hPa | 0 mm | - | - | - |
| 1777984637 | 6.67° C | 57% | 0 hPa | 0 mm | - | - | - |
| 1777984337 | 6.67° C | 58% | 0 hPa | 0 mm | - | - | - |
| 1777984037 | 7.22° C | 54% | 0 hPa | 0 mm | - | - | - |
| 1777983737 | 7.22° C | 55% | 0 hPa | 0 mm | - | - | - |
| 1777983437 | 7.22° C | 57% | 0 hPa | 0 mm | - | - | - |
| 1777983137 | 7.22° C | 54% | 0 hPa | 0 mm | - | - | - |
| 1777982837 | 7.78° C | 54% | 0 hPa | 0 mm | - | - | - |
| 1777982537 | 7.78° C | 54% | 0 hPa | 0 mm | - | - | - |
| 1777982237 | 7.78° C | 55% | 0 hPa | 0 mm | - | - | - |
| 1777981937 | 7.78° C | 47% | 0 hPa | 0 mm | - | - | - |
| 1777981637 | 7.22° C | 55% | 0 hPa | 0 mm | - | - | - |
| 1777981337 | 7.78° C | 53% | 0 hPa | 0 mm | - | - | - |
* Rain latest hour (hover to see other rain measurements)
** Current wind speed in m/s (hover to see current wind gust speed)